createdAt,value
2023-02-12T00:04:38.460Z,3.60
2023-02-12T00:14:43.662Z,3.80
2023-02-12T00:24:47.229Z,3.73
2023-02-12T00:34:52.264Z,4.07
2023-02-12T00:44:55.947Z,6.73
2023-02-12T00:55:00.988Z,3.97
2023-02-12T01:05:05.097Z,3.37
2023-02-12T01:15:11.709Z,4.40
2023-02-12T01:25:17.209Z,3.63
2023-02-12T01:35:23.958Z,3.80
2023-02-12T01:45:54.623Z,4.67
2023-02-12T01:56:03.259Z,3.47
2023-02-12T02:06:12.374Z,3.33
2023-02-12T02:16:25.386Z,3.73
2023-02-12T02:26:55.832Z,2.90
2023-02-12T02:37:09.905Z,3.40
2023-02-12T02:47:17.227Z,4.20
2023-02-12T02:57:28.616Z,3.97
2023-02-12T03:07:38.176Z,4.20
2023-02-12T03:17:47.989Z,4.43
2023-02-12T03:28:02.106Z,3.73
2023-02-12T03:38:17.341Z,4.77
2023-02-12T03:48:26.935Z,4.73
2023-02-12T03:58:35.534Z,4.67
2023-02-12T04:08:39.289Z,2.90
2023-02-12T04:18:49.396Z,3.60
2023-02-12T04:29:09.376Z,4.47
2023-02-12T04:39:21.691Z,3.77
2023-02-12T04:49:25.752Z,3.37
2023-02-12T04:59:30.909Z,3.50
2023-02-12T05:09:34.593Z,3.83
2023-02-12T05:19:39.637Z,4.23
2023-02-12T05:29:43.361Z,4.27
2023-02-12T05:39:50.624Z,3.87
2023-02-12T05:49:54.260Z,3.83
2023-02-12T06:00:00.569Z,4.10
2023-02-12T06:10:05.026Z,4.50
2023-02-12T06:20:10.671Z,3.73
2023-02-12T06:30:15.961Z,4.83
2023-02-12T06:40:22.533Z,4.60
2023-02-12T06:50:26.728Z,4.77
2023-02-12T07:00:31.947Z,3.80
2023-02-12T07:10:35.615Z,5.10
2023-02-12T07:20:40.763Z,3.63
2023-02-12T07:30:44.411Z,5.07
2023-02-12T07:40:51.531Z,5.27
2023-02-12T07:50:55.164Z,4.97
2023-02-12T08:01:00.484Z,5.73
2023-02-12T08:11:04.277Z,5.90
2023-02-12T08:21:12.865Z,7.10
2023-02-12T08:31:21.003Z,11.18
2023-02-12T08:41:29.191Z,6.57
2023-02-12T08:51:35.809Z,7.47
2023-02-12T09:01:42.707Z,6.63
2023-02-12T09:11:46.488Z,6.80
2023-02-12T09:21:56.075Z,5.27
2023-02-12T09:32:01.428Z,5.83
2023-02-12T09:42:22.855Z,5.67
2023-02-12T09:52:29.536Z,7.10
2023-02-12T10:02:37.370Z,5.90
2023-02-12T10:12:51.538Z,7.23
2023-02-12T10:23:10.375Z,8.20
2023-02-12T10:33:19.015Z,7.50
2023-02-12T10:43:25.436Z,7.00
2023-02-12T10:53:35.840Z,7.67
2023-02-12T11:03:41.154Z,5.47
2023-02-12T11:13:50.064Z,6.77
2023-02-12T11:23:55.155Z,6.93
2023-02-12T11:34:15.539Z,7.17
2023-02-12T11:44:27.071Z,5.93
2023-02-12T11:54:36.424Z,7.77
2023-02-12T12:04:43.016Z,7.53
2023-02-12T12:15:09.345Z,6.13
2023-02-12T12:25:26.334Z,6.10
2023-02-12T12:35:41.490Z,5.40
2023-02-12T12:46:11.255Z,4.63
2023-02-12T12:56:36.088Z,6.43
2023-02-12T13:07:08.111Z,4.07
2023-02-12T13:17:20.584Z,3.13
2023-02-12T13:27:32.028Z,3.90
2023-02-12T13:37:45.006Z,4.10
2023-02-12T13:48:08.782Z,3.43
2023-02-12T13:59:00.852Z,4.13
2023-02-12T14:09:12.627Z,3.77
2023-02-12T14:19:40.157Z,3.40
2023-02-12T14:30:17.596Z,4.03
2023-02-12T14:40:44.386Z,3.50
2023-02-12T14:50:52.232Z,2.97
2023-02-12T15:00:58.642Z,3.03
2023-02-12T15:11:16.110Z,2.07
2023-02-12T15:21:24.544Z,2.30
2023-02-12T15:31:32.816Z,2.50
2023-02-12T15:41:42.009Z,2.77
2023-02-12T15:51:47.941Z,2.43
2023-02-12T16:01:58.648Z,3.63
2023-02-12T16:12:11.275Z,3.53
2023-02-12T16:22:19.408Z,3.97
2023-02-12T16:32:44.324Z,2.67
2023-02-12T16:43:08.690Z,3.47
2023-02-12T16:53:37.357Z,2.47
2023-02-12T17:03:41.330Z,3.10
2023-02-12T17:13:47.667Z,2.67
2023-02-12T17:23:53.761Z,3.03
2023-02-12T17:33:58.886Z,2.97
2023-02-12T17:44:02.914Z,3.00
2023-02-12T17:54:08.265Z,2.43
2023-02-12T18:04:12.086Z,2.10
2023-02-12T18:14:17.190Z,1.30
2023-02-12T18:24:20.809Z,1.50
2023-02-12T18:34:26.701Z,3.03
2023-02-12T18:44:30.488Z,1.20
2023-02-12T18:54:35.769Z,0.97
2023-02-12T19:04:39.529Z,2.67
2023-02-12T19:14:44.711Z,3.37
2023-02-12T19:24:51.733Z,1.60
2023-02-12T19:34:56.882Z,1.77
2023-02-12T19:45:00.798Z,1.03
2023-02-12T19:55:06.833Z,2.07
2023-02-12T20:05:10.607Z,1.27
2023-02-12T20:15:16.629Z,1.70
2023-02-12T20:25:20.323Z,1.50
2023-02-12T20:35:26.418Z,2.30
2023-02-12T20:45:30.289Z,2.00
2023-02-12T20:55:35.391Z,1.63
2023-02-12T21:05:39.384Z,1.93
2023-02-12T21:15:44.644Z,2.63
2023-02-12T21:25:48.545Z,2.47
2023-02-12T21:35:53.562Z,2.53
2023-02-12T21:45:57.174Z,2.27
2023-02-12T21:56:05.454Z,2.10
2023-02-12T22:06:10.128Z,1.93
2023-02-12T22:16:18.417Z,2.97
2023-02-12T22:26:25.993Z,1.60
2023-02-12T22:36:31.866Z,1.97
2023-02-12T22:46:36.127Z,1.93
2023-02-12T22:56:41.451Z,2.03
2023-02-12T23:06:46.095Z,1.17
2023-02-12T23:16:51.124Z,1.10
2023-02-12T23:26:55.051Z,1.40
2023-02-12T23:37:00.129Z,1.33
2023-02-12T23:47:03.712Z,1.10
2023-02-12T23:57:08.677Z,1.20
